Galilee, Rhode Island
Current Conditions -  °F | °C
As of 12:53 PM on Saturday 25 Oct 2014 (Local Time) from KUUU Reporting Station
Clear Clear  
Wind Chill: 65°   Ceiling: Unl
Heat Index: 65°   Visibility: 10mi
Dew Point: 44°   Wind: 7mph
Humidity: 47%   Direction: NA
Pressure: 29.7"   Gusts: NA
Location:  41.4075°N, 71.4775°W
Report Text: KUUU 251653Z AUTO VRB06KT 10SM CLR 18/07 A2970 RMK AO2 SLP055 T01830067
Loading
Personal Weather Stations






























Interactive Weather Map
Tropical Storm Tracking
New forecast layout! Learn more

10-Day Weather Forecast

Advertisements
Track Severe Weather on mobile